Create Custom Reports and Graphics: Custom Report

Scotts Valley

Current Conditions

5/19/24 8:00 AM (-07:00)
Updated Every 15 Minutes
Temp 54.6 °F   6.3
RH 66 %   18
Dew Pt 43.3 °F   12.8
Wet Bulb 49.1 °F   10.1
Wind Dir E | 83 °
Wind Spd 0.4 mph   0.2
Wind Gust 1.9 mph   1.1
BatVolt 13.2 V   0.0
Month Precip 0.81 In
Season Precip 32.11 In

Today & Yesterday

Midnight to Midnight

5/19/24 8:00 AM (-07:00)
Updated Every 15 Minutes
Daily Max Temp 56.3 °F   5.9
Time of Max Temp 0759
Daily Min Temp 37.1 °F   9.2
Time of Min Temp 0608
Daily Max Wind 2.8 mph   0.7
Time of Max Wind 0448
Max Wind Dir NE | 49 °
Daily Rain 0.00 In
Daily Leaf Wet 1.8 Hrs   3.3
Yest MaxT 84.0 °F
Yest MinT 46.3 °F
Yest MaxGst 17.9 mph
Yest Precip 0.00 In
Yest Leaf Wet 5.2 Hrs

Last 7 Days

Scotts Valley

Hourly Data | America/Los_Angeles
as of 5/19/24 8:12 AM PDT
Date & Time Temp (°F) RH (%) Dew Pt (°F) Wind Dir (°) Wind Spd (mph) Wind Gust (mph) Leaf Wet (mins) BatVolt (V) Latest Rain (In) Daily Rain (In) Daily Min Temp (°F) Daily Max Temp (°F) Daily Max Wind (mph) Daily Leaf Wet (Hrs)
5/19/24 - 0800 48.9 84 43.8 NNE | 30 0.2 1.9 0.0 13.2 0.00 0.00 37.1 56.3 2.8 1.8
5/19/24 - 0700 38.4 97 37.6 N | 354 0.1 1.2 54.8 12.7 0.00 0.00 37.1 53.6 2.8 1.8
5/19/24 - 0600 38.2 96 37.2 NNE | 13 0.2 2.0 55.6 12.6 0.00 0.00 37.2 53.6 2.8 0.9
5/19/24 - 0500 39.4 95 38.1 NNE | 21 0.2 2.8 0.0 12.6 0.00 0.00 39.0 53.6 2.8 0.0
5/19/24 - 0400 41.1 93 39.2 NNE | 18 0.2 2.1 0.0 12.6 0.00 0.00 40.1 53.6 2.1 0.0
5/19/24 - 0300 43.7 90 41.1 NNE | 25 0.2 1.4 0.0 12.6 0.00 0.00 42.2 53.6 1.9 0.0
5/19/24 - 0200 49.1 77 42.0 NNE | 24 0.4 1.9 0.0 12.6 0.00 0.00 45.5 53.6 1.9 0.0
5/19/24 - 0100 56.0 60 42.3 SW | 232 1.1 6.2 0.0 12.7 0.00 0.00 46.3 84.0 17.9 5.2
5/19/24 - 0000 58.3 57 43.2 WSW | 246 0.8 5.8 0.0 12.7 0.00 0.00 46.3 84.0 17.9 5.2
5/18/24 - 2300 60.1 55 43.7 WNW | 292 1.1 5.3 0.0 12.8 0.00 0.00 46.3 84.0 17.9 5.2
5/18/24 - 2200 63.7 49 44.0 NW | 322 1.9 9.3 0.0 12.8 0.00 0.00 46.3 84.0 17.9 5.2
5/18/24 - 2100 67.3 42 43.4 W | 276 2.5 16.3 0.0 12.9 0.00 0.00 46.3 84.0 17.9 5.2
5/18/24 - 2000 71.7 37 44.1 W | 272 3.6 13.3 0.0 13.1 0.00 0.00 46.3 84.0 17.9 5.2
5/18/24 - 1900 75.7 32 43.7 W | 266 5.4 17.9 0.0 13.2 0.00 0.00 46.3 84.0 17.9 5.2
5/18/24 - 1800 79.0 35 48.9 W | 264 5.0 13.9 0.0 13.1 0.00 0.00 46.3 84.0 15.7 5.2
5/18/24 - 1700 80.7 42 55.6 W | 260 5.5 15.2 0.0 13.1 0.00 0.00 46.3 84.0 15.7 5.2
5/18/24 - 1600 81.9 44 58.2 W | 267 5.0 15.7 0.0 13.1 0.00 0.00 46.3 84.0 15.7 5.2
5/18/24 - 1500 82.9 43 58.4 W | 279 4.3 15.4 0.0 13.1 0.00 0.00 46.3 84.0 15.4 5.2
5/18/24 - 1400 82.9 45 59.7 W | 278 3.4 11.5 0.0 13.1 0.00 0.00 46.3 84.0 11.5 5.2
5/18/24 - 1300 82.0 45 58.6 ESE | 111 2.2 6.2 0.0 13.1 0.00 0.00 46.3 83.6 6.9 5.2
5/18/24 - 1200 79.5 50 59.5 ESE | 117 2.3 6.9 0.0 13.1 0.00 0.00 46.3 80.5 6.9 5.2
5/18/24 - 1100 76.1 56 59.3 ENE | 63 1.7 5.6 0.0 13.1 0.00 0.00 46.3 77.5 5.6 5.2
5/18/24 - 1000 72.4 59 57.1 ENE | 61 1.2 4.2 0.0 13.2 0.00 0.00 46.3 74.1 4.2 5.2
5/18/24 - 0900 66.0 72 56.6 NNE | 21 0.5 2.6 0.0 13.3 0.00 0.00 46.3 69.7 2.6 5.2
5/18/24 - 0800 56.7 94 55.1 N | 8 0.1 2.2 48.3 13.2 0.00 0.00 46.3 62.2 2.2 5.2
5/18/24 - 0700 47.6 98 47.0 SSE | 151 0.2 1.3 60.0 12.7 0.00 0.00 46.3 53.0 1.3 4.4
5/18/24 - 0600 46.6 96 45.6 S | 185 0.1 1.0 60.0 12.6 0.00 0.00 46.3 53.0 1.3 3.4
5/18/24 - 0500 47.8 96 46.8 SSW | 208 0.1 1.1 60.0 12.6 0.00 0.00 47.2 53.0 1.3 2.4
5/18/24 - 0400 49.0 95 47.8 WSW | 252 0.1 1.1 60.0 12.6 0.00 0.00 48.4 53.0 1.3 1.4
5/18/24 - 0300 50.6 95 49.2 WSW | 252 0.1 1.3 21.9 12.6 0.00 0.00 49.6 53.0 1.3 0.4
5/18/24 - 0200 52.2 94 50.4 WSW | 252 0.0 0.9 0.0 12.6 0.00 0.00 51.4 53.0 0.9 0.0
5/18/24 - 0100 54.0 92 51.8 WSW | 252 0.1 1.2 0.0 12.6 0.00 0.00 44.9 88.8 11.3 5.3
5/18/24 - 0000 56.2 89 52.9 WSW | 252 0.1 1.4 0.0 12.7 0.00 0.00 44.9 88.8 11.3 5.3
5/17/24 - 2300 60.4 80 54.3 WSW | 251 0.1 1.1 0.0 12.7 0.00 0.00 44.9 88.8 11.3 5.3
5/17/24 - 2200 67.1 64 54.6 WSW | 251 0.8 4.5 0.0 12.8 0.00 0.00 44.9 88.8 11.3 5.3
5/17/24 - 2100 71.5 58 56.2 NW | 315 0.9 6.9 0.0 12.9 0.00 0.00 44.9 88.8 11.3 5.3
5/17/24 - 2000 76.9 54 58.7 W | 269 2.3 11.3 0.0 13.0 0.00 0.00 44.9 88.8 11.3 5.3
5/17/24 - 1900 82.4 48 60.7 WNW | 287 1.7 10.2 0.0 13.1 0.00 0.00 44.9 88.8 10.2 5.3
5/17/24 - 1800 85.7 44 61.0 WNW | 282 2.3 8.2 0.0 13.0 0.00 0.00 44.9 88.8 8.8 5.3
5/17/24 - 1700 86.7 41 60.0 W | 267 2.6 8.8 0.0 13.0 0.00 0.00 44.9 88.8 8.8 5.3
5/17/24 - 1600 87.1 38 58.8 SSW | 202 3.1 8.4 0.0 13.0 0.00 0.00 44.9 88.8 8.4 5.3
5/17/24 - 1500 86.2 41 59.6 SE | 127 2.3 6.6 0.0 13.0 0.00 0.00 44.9 88.8 8.3 5.3
5/17/24 - 1400 82.0 46 59.3 E | 92 2.4 7.0 0.0 13.1 0.00 0.00 44.9 84.2 8.3 5.3
5/17/24 - 1300 79.5 49 58.9 E | 100 3.4 8.3 0.0 13.1 0.00 0.00 44.9 81.3 8.3 5.3
5/17/24 - 1200 77.8 53 59.1 ESE | 107 3.0 7.8 0.0 13.1 0.00 0.00 44.9 78.8 7.8 5.3
5/17/24 - 1100 74.4 56 58.0 ENE | 71 1.7 5.3 0.0 13.2 0.00 0.00 44.9 76.2 5.5 5.3
5/17/24 - 1000 70.3 60 55.8 NE | 55 1.1 5.5 0.0 13.2 0.00 0.00 44.9 72.4 5.5 5.3
5/17/24 - 0900 64.4 73 55.6 NE | 54 0.9 3.5 0.0 13.4 0.00 0.00 44.9 68.2 3.5 5.3
5/17/24 - 0800 55.4 96 54.2 WNW | 293 0.2 3.1 14.2 13.2 0.00 0.00 44.9 61.0 3.1 5.3
5/17/24 - 0700 46.3 98 45.8 SW | 217 0.3 2.6 60.0 12.7 0.00 0.00 44.9 50.6 2.6 5.1
5/17/24 - 0600 45.4 97 44.6 S | 188 0.2 1.2 60.0 12.6 0.00 0.00 45.1 50.1 1.8 4.1
5/17/24 - 0500 46.0 96 45.1 ESE | 122 0.1 1.0 60.0 12.6 0.00 0.00 45.4 50.1 1.8 3.1
5/17/24 - 0400 46.8 96 45.8 ESE | 122 0.1 1.0 60.0 12.6 0.00 0.00 46.4 50.1 1.8 2.1
5/17/24 - 0300 47.8 96 46.6 SE | 124 0.1 1.2 60.0 12.6 0.00 0.00 47.0 50.1 1.8 1.1
5/17/24 - 0200 49.4 95 48.0 S | 188 0.3 1.8 5.8 12.6 0.00 0.00 48.5 50.1 1.8 0.1
5/17/24 - 0100 50.9 93 48.9 S | 188 0.2 1.6 0.0 12.7 0.00 0.00 45.1 87.9 11.3 3.2
5/17/24 - 0000 54.0 86 50.0 S | 186 0.1 1.3 0.0 12.7 0.00 0.00 45.1 87.9 11.3 3.2
5/16/24 - 2300 59.7 75 51.7 SSW | 208 0.7 2.7 0.0 12.7 0.00 0.00 45.1 87.9 11.3 3.2
5/16/24 - 2200 65.4 64 53.0 NW | 307 1.1 10.1 0.0 12.8 0.00 0.00 45.1 87.9 11.3 3.2
5/16/24 - 2100 68.1 59 53.5 W | 277 2.1 8.9 0.0 12.9 0.00 0.00 45.1 87.9 11.3 3.2
5/16/24 - 2000 73.0 58 57.4 W | 268 2.6 9.2 0.0 13.0 0.00 0.00 45.1 87.9 11.3 3.2
5/16/24 - 1900 78.7 53 60.1 W | 264 3.1 10.0 0.0 13.2 0.00 0.00 45.1 87.9 11.3 3.2
5/16/24 - 1800 82.0 47 59.9 W | 271 3.6 11.3 0.0 13.1 0.00 0.00 45.1 87.9 11.3 3.2
5/16/24 - 1700 83.7 45 59.9 W | 273 3.4 11.3 0.0 13.0 0.00 0.00 45.1 87.9 11.3 3.2
5/16/24 - 1600 85.3 44 61.2 W | 278 3.2 10.4 0.0 13.0 0.00 0.00 45.1 87.9 10.4 3.2
5/16/24 - 1500 86.7 41 60.4 SW | 222 3.0 8.2 0.0 13.0 0.00 0.00 45.1 87.9 8.2 3.2
5/16/24 - 1400 85.8 39 58.2 SE | 143 2.7 6.9 0.0 13.0 0.00 0.00 45.1 86.7 6.9 3.2
5/16/24 - 1300 83.6 39 56.1 ESE | 102 2.1 6.8 0.0 13.1 0.00 0.00 45.1 85.2 6.8 3.2
5/16/24 - 1200 81.0 42 55.8 E | 96 1.8 5.6 0.0 13.1 0.00 0.00 45.1 83.2 5.6 3.2
5/16/24 - 1100 78.1 48 56.6 ESE | 111 1.9 5.6 0.0 13.1 0.00 0.00 45.1 80.2 5.6 3.2
5/16/24 - 1000 74.2 51 54.9 E | 84 0.9 4.8 0.0 13.2 0.00 0.00 45.1 76.7 4.8 3.2
5/16/24 - 0900 67.7 66 55.8 NNE | 29 0.7 2.4 0.0 13.3 0.00 0.00 45.1 72.3 3.4 3.2
5/16/24 - 0800 55.9 92 53.5 WNW | 286 0.3 3.4 2.8 13.2 0.00 0.00 45.1 63.0 3.4 3.2
5/16/24 - 0700 46.4 98 45.8 SW | 235 0.3 2.1 60.0 12.6 0.00 0.00 45.1 51.6 2.1 3.1
5/16/24 - 0600 45.6 97 44.7 SSW | 212 0.2 1.1 60.0 12.6 0.00 0.00 45.1 51.6 1.5 2.1
5/16/24 - 0500 46.5 96 45.4 SSW | 213 0.2 1.1 60.0 12.6 0.00 0.00 46.0 51.6 1.5 1.1
5/16/24 - 0400 47.4 95 46.0 SSW | 210 0.0 1.0 8.9 12.6 0.00 0.00 46.8 51.6 1.5 0.1
5/16/24 - 0300 48.8 94 47.2 SSW | 210 0.2 1.3 0.0 12.6 0.00 0.00 48.0 51.6 1.5 0.0
5/16/24 - 0200 50.4 92 48.3 SSW | 210 0.2 1.5 0.0 12.6 0.00 0.00 49.5 51.6 1.5 0.0
5/16/24 - 0100 52.7 89 49.6 WSW | 240 0.3 2.0 0.0 12.6 0.00 0.00 44.4 92.7 13.7 3.2
5/16/24 - 0000 55.0 86 50.8 SW | 234 0.3 1.9 0.0 12.7 0.00 0.00 44.4 92.7 13.7 3.2
5/15/24 - 2300 57.5 79 51.0 SW | 221 0.2 1.9 0.0 12.7 0.00 0.00 44.4 92.7 13.7 3.2
5/15/24 - 2200 62.1 67 50.9 SSW | 209 0.2 1.8 0.0 12.8 0.00 0.00 44.4 92.7 13.7 3.2
5/15/24 - 2100 70.8 48 49.9 SW | 222 0.8 3.8 0.0 12.9 0.00 0.00 44.4 92.7 13.7 3.2
5/15/24 - 2000 80.0 35 49.8 W | 279 1.0 8.1 0.0 13.0 0.00 0.00 44.4 92.7 13.7 3.2
5/15/24 - 1900 84.9 29 49.4 W | 272 1.9 9.9 0.0 13.1 0.00 0.00 44.4 92.7 13.7 3.2
5/15/24 - 1800 88.2 29 51.9 WNW | 290 2.3 10.0 0.0 13.0 0.00 0.00 44.4 92.7 13.7 3.2
5/15/24 - 1700 89.8 32 56.2 WNW | 296 3.3 12.6 0.0 13.0 0.00 0.00 44.4 92.7 13.7 3.2
5/15/24 - 1600 90.7 33 57.5 W | 276 3.5 13.7 0.0 13.0 0.00 0.00 44.4 92.7 13.7 3.2
5/15/24 - 1500 90.5 30 55.0 NE | 55 2.8 11.6 0.0 13.0 0.00 0.00 44.4 92.7 11.6 3.2
5/15/24 - 1400 87.6 29 51.7 ESE | 103 2.8 7.2 0.0 13.0 0.00 0.00 44.4 88.9 7.2 3.2
5/15/24 - 1300 85.7 34 54.0 ESE | 119 2.7 6.1 0.0 13.1 0.00 0.00 44.4 86.3 6.1 3.2
5/15/24 - 1200 83.5 37 54.6 ESE | 107 1.8 5.8 0.0 13.1 0.00 0.00 44.4 86.0 5.8 3.2
5/15/24 - 1100 79.8 47 57.5 E | 96 1.4 4.7 0.0 13.1 0.00 0.00 44.4 81.6 4.7 3.2
5/15/24 - 1000 75.0 51 55.4 ENE | 72 1.0 3.3 0.0 13.2 0.00 0.00 44.4 77.4 3.3 3.2
5/15/24 - 0900 67.6 65 55.4 E | 82 0.5 2.4 0.0 13.3 0.00 0.00 44.4 72.8 2.4 3.2
5/15/24 - 0800 55.4 91 52.6 E | 98 0.2 1.3 1.2 13.2 0.00 0.00 44.4 62.3 1.5 3.2
5/15/24 - 0700 45.5 98 44.9 S | 183 0.2 1.5 60.0 12.6 0.00 0.00 44.4 49.8 1.5 3.2
5/15/24 - 0600 44.8 96 43.8 SE | 124 0.1 0.9 60.0 12.6 0.00 0.00 44.4 49.8 1.3 2.2
5/15/24 - 0500 45.5 96 44.5 SE | 124 0.0 1.1 60.0 12.6 0.00 0.00 45.0 49.8 1.3 1.2
5/15/24 - 0400 46.5 96 45.3 E | 91 0.1 1.1 10.4 12.6 0.00 0.00 45.8 49.8 1.3 0.2
5/15/24 - 0300 47.6 94 46.0 E | 98 0.1 1.3 0.0 12.6 0.00 0.00 47.0 49.8 1.3 0.0
5/15/24 - 0200 48.8 93 46.9 SE | 140 0.1 1.0 0.0 12.6 0.00 0.00 48.0 49.8 1.0 0.0
5/15/24 - 0100 50.6 92 48.3 S | 182 0.2 1.3 0.0 12.6 0.00 0.00 42.8 89.7 10.1 3.5
5/15/24 - 0000 52.8 87 49.1 SSE | 156 0.0 0.9 0.0 12.7 0.00 0.00 42.8 89.7 10.1 3.5
5/14/24 - 2300 55.8 81 49.9 SSE | 164 0.1 1.6 0.0 12.7 0.00 0.00 42.8 89.7 10.1 3.5
5/14/24 - 2200 60.3 69 50.2 WSW | 244 0.4 2.2 0.0 12.8 0.00 0.00 42.8 89.7 10.1 3.5
5/14/24 - 2100 68.7 54 51.5 WNW | 295 0.7 3.7 0.0 12.9 0.00 0.00 42.8 89.7 10.1 3.5
5/14/24 - 2000 78.8 44 55.1 WNW | 299 0.6 5.2 0.0 13.0 0.00 0.00 42.8 89.7 10.1 3.5
5/14/24 - 1900 84.3 41 57.9 W | 277 1.6 8.7 0.0 13.1 0.00 0.00 42.8 89.7 10.1 3.5
5/14/24 - 1800 86.9 38 58.5 WNW | 294 2.4 8.1 0.0 13.0 0.00 0.00 42.8 89.7 10.1 3.5
5/14/24 - 1700 88.8 33 56.2 W | 281 2.7 9.0 0.0 13.0 0.00 0.00 42.8 89.7 10.1 3.5
5/14/24 - 1600 88.7 32 54.7 WSW | 244 3.0 10.1 0.0 13.0 0.00 0.00 42.8 89.7 10.1 3.5
5/14/24 - 1500 88.2 31 54.0 S | 183 2.9 8.9 0.0 13.0 0.00 0.00 42.8 89.5 8.9 3.5
5/14/24 - 1400 85.8 32 52.2 SSE | 156 2.3 7.2 0.0 13.0 0.00 0.00 42.8 87.4 7.2 3.5
5/14/24 - 1300 82.4 37 53.7 E | 100 1.9 5.6 0.0 13.1 0.00 0.00 42.8 83.8 5.6 3.5
5/14/24 - 1200 80.1 42 54.7 SE | 137 1.5 4.5 0.0 13.1 0.00 0.00 42.8 82.1 4.6 3.5
5/14/24 - 1100 76.3 50 56.0 ESE | 110 1.3 4.6 0.0 13.2 0.00 0.00 42.8 78.2 4.6 3.5
5/14/24 - 1000 71.8 54 54.4 ESE | 113 1.1 3.9 0.0 13.2 0.00 0.00 42.8 74.4 3.9 3.5
5/14/24 - 0900 65.3 67 53.8 ENE | 59 0.4 2.7 0.0 13.4 0.00 0.00 42.8 69.6 2.7 3.5
5/14/24 - 0800 53.6 91 50.7 NNE | 25 0.4 2.2 6.3 13.2 0.00 0.00 42.8 60.2 2.2 3.5
5/14/24 - 0700 44.1 98 43.5 SW | 224 0.2 1.8 60.0 12.6 0.00 0.00 42.8 48.9 2.2 3.4
5/14/24 - 0600 43.6 97 42.7 SSW | 196 0.4 1.9 60.0 12.5 0.00 0.00 43.2 48.9 2.2 2.4
5/14/24 - 0500 44.6 96 43.5 SSW | 197 0.2 1.3 60.0 12.6 0.00 0.00 44.2 48.9 2.2 1.4
5/14/24 - 0400 45.5 95 44.2 SSW | 198 0.2 1.2 23.5 12.6 0.00 0.00 44.8 48.9 2.2 0.4
5/14/24 - 0300 46.9 94 45.3 SSW | 192 0.2 1.6 0.0 12.6 0.00 0.00 46.0 48.9 2.2 0.0
5/14/24 - 0200 48.3 93 46.4 SSE | 150 0.3 2.2 0.0 12.6 0.00 0.00 47.8 48.9 2.2 0.0
5/14/24 - 0100 49.7 91 47.1 WNW | 292 0.0 1.2 0.0 12.6 0.00 0.00 38.4 88.8 11.2 4.1
5/14/24 - 0000 51.4 88 48.0 NE | 38 0.1 1.0 0.0 12.7 0.00 0.00 38.4 88.8 11.2 4.1
5/13/24 - 2300 54.4 83 49.3 NE | 36 0.1 1.2 0.0 12.7 0.00 0.00 38.4 88.8 11.2 4.1
5/13/24 - 2200 59.6 71 50.0 SSW | 212 0.4 2.2 0.0 12.8 0.00 0.00 38.4 88.8 11.2 4.1
5/13/24 - 2100 67.6 54 50.5 SSW | 197 0.9 3.9 0.0 12.9 0.00 0.00 38.4 88.8 11.2 4.1
5/13/24 - 2000 75.2 43 51.5 WNW | 288 2.3 7.9 0.0 13.0 0.00 0.00 38.4 88.8 11.2 4.1
5/13/24 - 1900 80.6 38 52.9 W | 270 3.1 11.2 0.0 13.2 0.00 0.00 38.4 88.8 11.2 4.1
5/13/24 - 1800 85.3 29 49.2 WSW | 256 2.4 9.3 0.0 13.0 0.00 0.00 38.4 88.8 10.6 4.1
5/13/24 - 1700 86.3 29 49.9 SW | 219 3.0 8.0 0.0 13.0 0.00 0.00 38.4 88.8 10.6 4.1
5/13/24 - 1600 86.9 25 46.8 SSE | 166 2.4 7.2 0.0 13.0 0.00 0.00 38.4 88.2 10.6 4.1
5/13/24 - 1500 86.0 24 45.4 SE | 146 3.0 7.8 0.0 13.0 0.00 0.00 38.4 86.6 10.6 4.1
5/13/24 - 1400 83.2 22 40.4 SE | 142 3.1 8.3 0.0 13.1 0.00 0.00 38.4 85.9 10.6 4.1
5/13/24 - 1300 80.4 33 48.2 SE | 131 3.0 10.6 0.0 13.1 0.00 0.00 38.4 82.4 10.6 4.1
5/13/24 - 1200 77.3 42 52.7 SE | 142 2.1 5.9 0.0 13.1 0.00 0.00 38.4 79.4 5.9 4.1
5/13/24 - 1100 73.5 47 52.1 NE | 50 1.7 5.2 0.0 13.2 0.00 0.00 38.4 75.3 5.2 4.1
5/13/24 - 1000 68.8 52 50.4 NE | 54 0.8 3.6 0.0 13.2 0.00 0.00 38.4 72.2 3.6 4.1
5/13/24 - 0900 61.9 64 49.5 NE | 44 0.8 2.8 0.0 13.4 0.00 0.00 38.4 64.5 2.8 4.1
5/13/24 - 0800 49.6 91 46.9 SE | 132 0.1 1.0 7.8 13.2 0.00 0.00 38.4 56.8 1.5 4.1
5/13/24 - 0700 39.6 98 39.0 S | 176 0.2 1.4 60.0 12.6 0.00 0.00 38.4 44.2 1.5 4.0
5/13/24 - 0600 39.1 96 38.2 SSW | 212 0.1 1.3 60.0 12.6 0.00 0.00 38.4 44.2 1.5 3.0
5/13/24 - 0500 40.4 96 39.4 SW | 216 0.3 1.5 60.0 12.6 0.00 0.00 39.7 44.2 1.5 2.0
5/13/24 - 0400 41.1 95 39.9 S | 186 0.2 1.4 59.3 12.6 0.00 0.00 40.5 44.2 1.4 1.0
5/13/24 - 0300 42.2 95 40.7 SW | 228 0.0 0.5 0.0 12.6 0.00 0.00 41.6 44.2 0.9 0.0
5/13/24 - 0200 43.4 94 41.7 SW | 228 0.0 0.9 0.0 12.6 0.00 0.00 42.8 44.2 0.9 0.0
5/13/24 - 0100 45.0 92 42.7 SW | 229 0.1 2.0 0.0 12.7 0.00 0.00 40.4 86.2 12.8 4.7
5/13/24 - 0000 47.0 88 43.6 SE | 124 0.1 1.3 0.0 12.7 0.00 0.00 40.4 86.2 12.8 4.7
5/12/24 - 2300 50.2 82 44.9 SSW | 195 0.1 1.4 0.0 12.8 0.00 0.00 40.4 86.2 12.8 4.7
5/12/24 - 2200 54.6 66 43.3 SSW | 201 0.5 1.6 0.0 12.8 0.00 0.00 40.4 86.2 12.8 4.7
5/12/24 - 2100 62.6 49 43.1 NW | 311 0.4 3.6 0.0 12.9 0.00 0.00 40.4 86.2 12.8 4.7
5/12/24 - 2000 72.7 35 43.5 W | 265 0.7 5.5 0.0 13.0 0.00 0.00 40.4 86.2 12.8 4.7
5/12/24 - 1900 78.4 29 43.6 W | 273 2.7 12.6 0.0 13.2 0.00 0.00 40.4 86.2 12.8 4.7
5/12/24 - 1800 81.2 27 43.9 W | 271 3.3 12.8 0.0 13.1 0.00 0.00 40.4 86.2 12.8 4.7
5/12/24 - 1700 83.6 27 46.0 W | 273 3.4 12.6 0.0 13.0 0.00 0.00 40.4 86.2 12.6 4.7
5/12/24 - 1600 85.3 26 46.8 WNW | 289 2.9 8.8 0.0 13.0 0.00 0.00 40.4 86.2 10.4 4.7
5/12/24 - 1500 84.5 27 47.1 W | 276 3.5 9.8 0.0 13.0 0.00 0.00 40.4 85.7 10.4 4.7
5/12/24 - 1400 83.4 30 48.7 W | 262 3.8 10.4 0.0 13.1 0.00 0.00 40.4 84.5 10.4 4.7
5/12/24 - 1300 81.9 33 50.2 WSW | 252 4.3 10.0 0.0 13.1 0.00 0.00 40.4 82.7 10.0 4.7
5/12/24 - 1200 80.4 40 54.1 NE | 38 1.7 7.9 0.0 13.1 0.00 0.00 40.4 82.0 7.9 4.7
5/12/24 - 1100 76.7 47 55.0 E | 99 1.9 5.4 0.0 13.2 0.00 0.00 40.4 77.8 5.4 4.7
5/12/24 - 1000 73.0 47 51.7 ENE | 76 1.2 4.3 0.0 13.2 0.00 0.00 40.4 75.4 4.3 4.7
5/12/24 - 0900 64.6 61 50.7 ENE | 62 0.4 2.2 0.0 13.4 0.00 0.00 40.4 69.6 2.2 4.7
Max 90.7 98 61.2 - 5.5 17.9 60.0 13.4 0.00 0.00 51.4 92.7 17.9 5.3
Avg 65.7 64 50.3 - 1.4 5.2 9.4 12.9 0.00 - - - - -
Min 38.2 22 37.2 - 0.0 0.5 0.0 12.5 0.00 0.00 37.1 44.2 0.9 0.0
Total - - - - - - - - 0.00 - - - - -

Last 30 Days

Scotts Valley

Daily Data | America/Los_Angeles
as of 5/19/24 8:12 AM PDT
Date Daily Max Temp (°F) Time of Max Temp Daily Min Temp (°F) Time of Min Temp Daily Rain (In) Month Precip (In) Season Precip (In) Daily Max Wind (mph) Time of Max Wind Max Wind Dir (°) Wind Spd (mph) Dew Pt (°F) Max RH (%) Min RH (%) Daily Leaf Wet (Hrs) Degree Hrs (hrs) Chilling <=45F (hrs) Chill Hrs 32-45F (hrs) Utah Chilling (Units) Chill Portions Hrs <= 32F (hrs) Hrs <= 28F (hrs) GDDs (DL) GDDs (Mx/Mn) Seas GDDs (DL) Seas GDDs (Smpl) Hrs 70-85F (hrs) Hrs > 95F (hrs) Powdery Mildew Stress (pts) Bee Hrs Today (Hrs) Storm Total (In) Daily Max Rain Intensity (In/Hr) Time of Max Rain Intensity Max 1 Min Rain (In) Max 1 Min Rain Time Max 15 Min Rain (In) Max 15 Min Precip Time Max 60 Min Rain (In) Max 60 Min Rain Time MinBV Day (V)
5/18/24 84.0 1308 46.3 0537 0.00 0.81 32.11 17.9 1809 WSW | 258 2.0 50.8 99 27 5.2 153.2 0.0 0.0 -9.5 - 0.0 0.0 16.5 15.2 417 298 10.88 0.00 20 12.7 - - - - - - - - - 12.4
5/17/24 88.8 1448 44.9 0617 0.00 0.81 32.11 11.3 1946 WSW | 254 1.2 54.4 99 35 5.3 182.6 0.2 0.2 -8.0 - 0.0 0.0 17.4 16.8 400 283 4.99 0.00 0 12.5 - - - - - - - - - 12.4
5/16/24 87.9 1425 45.1 0556 0.00 0.81 32.11 11.3 1636 W | 270 1.4 53.5 99 35 3.2 183.3 0.0 0.0 -8.0 - 0.0 0.0 17.2 16.5 383 266 4.25 0.00 0 12.5 - - - - - - - - - 12.4
5/15/24 92.7 1441 44.4 0606 0.00 0.81 32.11 13.7 1524 WSW | 244 1.1 51.0 99 25 3.2 229.1 1.5 1.5 -7.5 - 0.0 0.0 19.0 18.5 366 250 3.12 0.00 10 12.5 - - - - - - - - - 12.4
5/14/24 89.7 1513 42.8 0620 0.00 0.81 32.11 10.1 1514 S | 171 1.0 51.1 99 26 3.5 201.1 3.0 3.0 -6.5 - 0.0 0.0 17.5 16.2 346 231 4.22 0.00 20 12.4 - - - - - - - - - 12.4
5/13/24 88.8 1602 38.4 0558 0.00 0.81 32.11 11.2 1825 W | 261 1.3 46.6 99 14 4.1 171.2 6.1 6.1 -5.0 - 0.0 0.0 15.8 13.6 329 215 4.25 0.00 30 12.1 - - - - - - - - - 12.4
5/12/24 86.2 1524 40.4 0544 0.00 0.81 32.11 12.8 1707 WSW | 249 1.3 45.7 99 23 4.7 166.0 5.9 5.9 -3.0 - 0.0 0.0 15.2 13.3 313 201 5.85 0.00 40 12.2 - - - - - - - - - 12.4
5/11/24 90.2 1546 40.4 0609 0.00 0.81 32.11 14.2 1720 WNW | 282 1.2 45.6 99 15 3.5 191.1 5.5 5.5 -4.5 - 0.0 0.0 16.6 15.3 298 188 3.98 0.00 50 12.2 - - - - - - - - - 12.4
5/10/24 87.4 1629 38.7 0540 0.00 0.81 32.11 9.2 1337 S | 174 1.0 43.6 99 17 3.7 177.8 6.2 6.2 -5.0 - 0.0 0.0 16.4 13.1 281 172 6.10 0.00 60 12.0 - - - - - - - - - 12.4
5/9/24 79.3 1650 40.2 0219 0.00 0.81 32.11 15.0 1231 SE | 136 2.3 40.0 94 22 0.0 108.0 5.4 5.4 -4.0 - 0.0 0.0 13.1 9.8 265 160 9.37 0.00 40 13.0 - - - - - - - - - 12.3
5/8/24 77.0 1740 31.8 0612 0.00 0.81 32.11 11.3 1457 E | 85 1.7 36.5 99 17 6.0 75.6 8.5 8.4 -4.0 - 0.1 0.0 10.6 4.4 252 150 7.66 0.00 20 11.3 - - - - - - - - - 12.4
5/7/24 71.9 1659 33.3 0623 0.00 0.81 32.11 9.5 1637 ENE | 77 1.4 40.0 99 26 3.4 24.6 8.4 8.4 2.0 - 0.0 0.0 7.1 2.6 241 145 0.96 0.00 0 10.0 - - - - - - - - - 12.5
5/6/24 66.3 1456 29.5 0523 0.00 0.81 32.11 15.7 1817 WNW | 302 2.1 39.0 99 43 4.9 0.0 9.4 4.9 3.5 - 4.5 0.0 4.5 0.0 234 143 0.00 0.00 0 9.2 - - - - - - - - - 12.5
5/5/24 60.4 1610 31.9 0421 0.00 0.81 32.11 15.2 1043 W | 272 2.3 35.9 100 40 4.5 0.0 11.0 10.9 11.5 - 0.1 0.0 2.0 0.0 230 143 0.00 0.00 0 5.0 - - - - - - - - - 12.4
5/4/24 53.2 0115 37.5 0019 0.81 0.81 32.11 19.4 0659 WSW | 251 2.4 42.1 96 74 17.6 0.0 13.4 13.4 21.0 - 0.0 0.0 0.3 0.0 228 143 0.00 0.00 0 0.0 0.81 0.21 0551 0.01 0255 0.05 0555 0.14 0606 12.5
5/3/24 75.0 1516 36.2 0613 0.00 0.00 31.30 17.2 1611 W | 267 2.3 43.9 99 23 3.0 43.6 5.3 5.3 -1.0 - 0.0 0.0 9.4 5.6 227 143 4.90 0.00 0 11.6 - - - - - - - - - 12.4
5/2/24 72.8 1411 44.6 0407 0.00 0.00 31.30 20.6 1559 W | 265 3.0 46.0 88 44 0.0 33.9 0.1 0.1 -3.0 - 0.0 0.0 9.5 8.7 218 137 3.01 0.00 0 12.2 - - - - - - - - - 12.4
5/1/24 76.2 1543 28.7 0620 0.00 0.00 31.30 12.7 1606 WNW | 286 1.6 36.9 99 23 4.9 43.7 7.0 3.0 -4.0 - 4.0 0.0 8.4 2.4 208 128 4.82 0.00 10 10.5 - - - - - - - - - 12.4
4/30/24 70.7 1405 29.3 0614 0.00 0.79 31.30 17.4 1638 WSW | 239 2.0 36.9 100 25 4.4 14.0 10.2 6.7 0.0 - 3.6 0.0 6.2 0.0 200 126 0.23 0.00 20 10.0 - - - - - - - - - 12.4
4/29/24 68.8 1455 35.8 0053 0.00 0.79 31.30 17.6 1324 NNW | 342 2.6 39.1 96 28 0.0 3.4 7.2 7.2 5.5 106 0.0 0.0 5.9 2.3 194 126 0.00 0.00 30 10.5 - - - - - - - - - 12.4
4/28/24 72.0 1432 38.1 0451 0.00 0.79 31.30 18.2 1312 WSW | 254 2.5 42.6 99 31 4.8 24.8 7.2 7.2 1.5 106 0.0 0.0 7.9 5.0 188 124 2.18 0.00 40 11.6 - - - - - - - - - 12.4
4/27/24 69.0 1522 31.5 0614 0.00 0.79 31.30 15.2 1342 W | 265 1.7 41.4 100 37 6.3 7.8 7.9 7.1 1.5 106 0.8 0.0 6.1 0.2 180 119 0.00 0.00 50 10.0 - - - - - - - - - 12.4
4/26/24 62.8 1347 39.0 0024 0.00 0.79 31.30 16.8 1501 W | 279 2.3 44.4 96 53 5.8 0.0 2.0 2.0 8.5 106 0.0 0.0 3.9 0.9 174 118 0.00 0.00 60 9.0 - - - - - - - - - 12.5
4/25/24 63.0 1414 40.3 0646 0.00 0.79 31.30 18.4 1800 NNW | 337 2.6 44.0 99 50 1.1 0.0 2.4 2.4 8.0 105 0.0 0.0 4.0 1.6 170 118 0.00 0.00 70 9.6 - - - - - - - - - 12.4
4/24/24 66.9 1511 47.1 0059 0.00 0.79 31.30 13.3 1746 WSW | 242 2.0 47.1 92 47 0.0 0.0 0.0 0.0 1.5 104 0.0 0.0 6.2 7.0 166 116 0.00 0.00 80 10.4 - - - - - - - - - 12.4
4/23/24 66.1 1409 41.4 0604 0.00 0.79 31.30 13.4 1459 SW | 220 2.1 46.8 99 56 7.3 0.0 3.5 3.5 7.5 104 0.0 0.0 5.0 3.7 160 109 0.00 0.00 90 9.0 - - - - - - - - - 12.4
4/22/24 84.4 1643 39.5 0628 0.00 0.79 31.30 17.5 1742 WSW | 247 1.5 47.1 100 20 6.7 120.0 5.2 5.2 -3.0 104 0.0 0.0 13.1 12.0 155 105 8.95 0.00 100 11.4 - - - - - - - - - 12.4
4/21/24 84.3 1538 36.8 0645 0.00 0.79 31.30 9.2 1145 ENE | 57 1.0 43.3 99 13 3.4 117.9 6.6 6.6 -2.0 104 0.0 0.0 12.7 10.5 142 93 8.53 0.00 100 11.2 - - - - - - - - - 12.4
4/20/24 78.6 1447 41.0 0534 0.00 0.79 31.30 15.0 1554 WSW | 249 1.9 39.3 98 18 4.8 93.0 7.4 7.4 0.0 104 0.0 0.0 11.4 9.8 129 83 8.84 0.00 100 11.4 - - - - - - - - - 12.4
4/19/24 81.6 1612 39.5 0603 0.00 0.79 31.30 17.8 1503 WSW | 245 1.7 45.1 100 22 6.6 102.9 6.0 6.0 -1.5 104 0.0 0.0 12.0 10.6 118 73 8.38 0.00 100 11.0 - - - - - - - - - 12.4
Max 92.7 - 47.1 - 0.81 0.81 32.11 20.6 - - 3.0 54.4 100 74 17.6 229.1 13.4 13.4 21.0 106 4.5 0.0 19.0 18.5 - - 10.88 0.00 - 13.0 - - - - - - - - - 12.5
Avg - - - - - - - - - - 1.8 44.0 - - - - 5.4 5.0 -0.2 105 0.4 0.0 10.4 7.9 - - 3.85 0.00 - 10.6 - - - - - - - - - -
Min 53.2 - 28.7 - 0.00 0.00 31.30 9.2 - - 1.0 35.9 88 13 0.0 0.0 0.0 0.0 -9.5 104 0.0 0.0 0.3 0.0 - - 0.00 0.00 - 0.0 - - - - - - - - - 12.3
Total - - - - - - - - - - - - - - - - 162.6 149.5 -7.5 - 13.1 0.0 310.9 235.8 - - 115.47 0.00 - 319.1 - - - - - - - - - -

Climate Summary

Scotts Valley

Current Year | Showing 1/1/24 - 5/18/24
as of 5/19/24 8:12 AM PDT
Temperature (°F) Max Wind Gust (mph) Precip (in) Days
Month Days Avg High Avg Low Max Min Avg Max Total Daily Min Temp < 28 Daily Min Temp < 32 Daily Max Temp > 90 Daily Max Temp > 100 Daily Rain > 0.01 Daily Rain > 0.1
Jan 2024 31 56.5 35.1 73.9 22.8 12.2 25.5 8.52 4 14 0 0 14 14
Feb 2024 29 56.7 33.1 70.5 23.4 14.9 32.8 6.75 5 14 0 0 13 10
Mar 2024 31 60.3 33.5 77 27 16.3 26.8 4.58 1 11 0 0 17 13
Apr 2024 30 69.9 35.9 84.4 25 14.7 26.6 0.79 1 7 0 0 4 3
May 2024 18 79.3 38.6 92.7 28.7 13.8 20.6 0.81 0 4 2 0 1 1
Total 139 - - - - - - 21.45 11 50 2 0 49 41
Average 27.8 63.2 34.9 63.2 34.9 14.4 - 4.29 2.2 10 0.4 0 9.8 8.2
Maximum 31 79.3 38.6 92.7 - - 32.8 8.52 5 14 2 0 17 14
Minimum 18 56.5 33.1 - 22.8 - - 0.79 0 4 0 0 1 1

Climate Summary

Scotts Valley

Last Year | Showing 1/1/23 - 12/31/23
as of 5/19/24 8:12 AM PDT
Temperature (°F) Max Wind Gust (mph) Precip (in) Days
Month Days Avg High Avg Low Max Min Avg Max Total Daily Min Temp < 28 Daily Min Temp < 32 Daily Max Temp > 90 Daily Max Temp > 100 Daily Rain > 0.01 Daily Rain > 0.1
Jan 2023 31 55.4 30.7 71.7 14.9 15.2 28.9 13.37 15 18 0 0 14 13
Feb 2023 28 55.6 25.6 76 15.8 14.6 29.2 4.02 18 26 0 0 12 8
Mar 2023 31 53.7 32.2 65 21.8 15.9 24.1 8.64 10 18 0 0 17 15
Apr 2023 30 68.9 34 90.6 26.4 15.7 23.9 0.62 5 11 1 0 3 2
May 2023 31 76.6 41.4 91.8 33.6 14.6 20.3 1.06 0 0 1 0 6 4
Jun 2023 30 84.5 44.4 103 31.8 15.4 20.9 0.05 0 1 6 1 1 0
Jul 2023 31 95.9 46.8 106.1 39.1 14.7 19 0 0 0 27 8 0 0
Aug 2023 31 93.2 49.1 106 39 14.4 18.4 0 0 0 24 3 0 0
Sep 2023 30 84.7 42.8 100.5 34.3 14.1 21.4 0.39 0 0 10 1 2 1
Oct 2023 31 77.6 35.9 94.7 23.4 10.8 19.6 1.33 6 9 6 0 3 2
Nov 2023 30 65.7 31.3 80.8 17.4 11.8 23.6 2.47 9 17 0 0 6 4
Dec 2023 31 57.8 32.8 67.8 21.9 10.8 18.8 6.47 12 16 0 0 13 11
Total 365 - - - - - - 38.42 75 116 75 13 77 60
Average 30.4 72.6 37.3 72.6 37.3 14 - 3.2 6.2 9.7 6.2 1.1 6.4 5
Maximum 31 95.9 49.1 106.1 - - 29.2 13.37 18 26 27 8 17 15
Minimum 28 53.7 25.6 - 14.9 - - 0 0 0 0 0 0 0
Calm: 0.0%
Calm: 0.1%